Time;durP1;ratioP1;P1;durP2;ratioP2;P2;SDS_P1;SDS_P2;PMS_P1;PMS_P2;Temp;Humidity;BMP_temperature;BMP_pressure;BME280_temperature;BME280_humidity;BME280_pressure;Samples;Min_cycle;Max_cycle;Signal;HPM_P1;HPM_P2
2022/06/19 00:00:19;;;;;;;6.27;3.77;;;;;;;20.89;100.00;101790.00;2064077;28;20432;-69
2022/06/19 00:01:20;;;;;;;5.83;3.73;;;;;;;20.06;100.00;101689.31;2062967;28;20183;-69
2022/06/19 00:02:21;;;;;;;11.87;4.30;;;;;;;20.86;100.00;101794.56;2063682;28;20436;-69
2022/06/19 00:03:41;;;;;;;7.50;4.30;;;;;;;20.84;100.00;101799.09;2063359;28;20459;-69
2022/06/19 00:04:44;;;;;;;9.60;4.27;;;;;;;20.83;100.00;101798.31;2064066;28;20409;-69
2022/06/19 00:05:44;;;;;;;7.60;4.23;;;;;;;20.78;100.00;101801.78;2063781;28;20461;-69
2022/06/19 00:06:45;;;;;;;6.87;4.20;;;;;;;20.78;100.00;101796.13;2063285;28;20431;-69
2022/06/19 00:07:45;;;;;;;5.70;3.87;;;;;;;20.77;100.00;101802.28;2064331;28;20212;-69
2022/06/19 00:08:48;;;;;;;5.13;3.70;;;;;;;20.76;100.00;101795.84;2064405;28;20201;-69
2022/06/19 00:09:48;;;;;;;7.03;3.87;;;;;;;20.73;100.00;101793.97;2064298;28;20178;-69
2022/06/19 00:10:49;;;;;;;9.97;4.00;;;;;;;20.72;100.00;101797.28;2064368;28;20432;-69
2022/06/19 00:11:50;;;;;;;5.07;3.97;;;;;;;19.90;100.00;101669.19;2063744;28;20236;-69
2022/06/19 00:12:50;;;;;;;8.13;3.83;;;;;;;20.71;100.00;101787.25;2063866;28;20325;-69
2022/06/19 00:13:51;;;;;;;7.03;4.07;;;;;;;20.71;100.00;101792.88;2064277;28;20198;-69
2022/06/19 00:14:51;;;;;;;9.13;4.20;;;;;;;20.49;100.00;101761.34;2063891;28;20233;-69
2022/06/19 00:15:52;;;;;;;8.13;4.23;;;;;;;20.25;100.00;101715.41;2064265;28;20610;-69
2022/06/19 00:16:53;;;;;;;5.57;3.73;;;;;;;20.71;100.00;101802.13;2064016;28;20182;-69
2022/06/19 00:17:53;;;;;;;7.70;3.97;;;;;;;20.70;100.00;101786.47;2064353;28;20177;-69
2022/06/19 00:18:54;;;;;;;6.47;4.20;;;;;;;20.71;100.00;101784.44;2064460;28;20179;-69
2022/06/19 00:19:54;;;;;;;6.63;4.27;;;;;;;20.61;100.00;101788.53;2064388;28;20178;-69
2022/06/19 00:20:55;;;;;;;8.93;4.30;;;;;;;20.58;100.00;101790.25;2064130;28;20201;-69
2022/06/19 00:21:55;;;;;;;6.90;3.53;;;;;;;20.56;100.00;101795.59;2063841;28;20201;-69
2022/06/19 00:22:56;;;;;;;8.17;3.60;;;;;;;20.50;100.00;101789.03;2063968;28;20265;-69
2022/06/19 00:23:57;;;;;;;6.20;3.80;;;;;;;20.44;100.00;101792.94;2063767;28;20186;-69
2022/06/19 00:24:58;;;;;;;7.87;3.73;;;;;;;20.39;100.00;101787.97;2064439;28;20175;-69
2022/06/19 00:25:59;;;;;;;3.90;3.50;;;;;;;20.42;100.00;101790.59;2064244;28;20672;-69
2022/06/19 00:26:59;;;;;;;7.60;3.67;;;;;;;20.40;100.00;101793.13;2064126;28;20439;-69
2022/06/19 00:28:00;;;;;;;5.10;3.43;;;;;;;20.33;100.00;101779.38;2064249;28;20618;-69
2022/06/19 00:29:01;;;;;;;6.00;3.80;;;;;;;20.39;100.00;101793.59;2064466;28;20751;-69
2022/06/19 00:30:01;;;;;;;4.93;3.70;;;;;;;20.37;100.00;101790.47;2064364;28;20257;-69
2022/06/19 00:31:02;;;;;;;5.90;3.30;;;;;;;20.37;100.00;101793.28;2063757;28;20174;-69
2022/06/19 00:32:06;;;;;;;9.10;3.53;;;;;;;20.31;100.00;101804.38;2064297;28;20604;-69
2022/06/19 00:33:07;;;;;;;4.63;3.10;;;;;;;20.30;100.00;101802.03;2063843;28;20178;-69
2022/06/19 00:34:08;;;;;;;6.13;4.00;;;;;;;19.83;100.00;101754.69;2062962;28;20440;-69
2022/06/19 00:35:09;;;;;;;6.67;3.60;;;;;;;20.22;100.00;101798.00;2063832;28;20182;-69
2022/06/19 00:36:10;;;;;;;6.73;4.03;;;;;;;20.13;100.00;101810.03;2064242;28;20178;-69
2022/06/19 00:37:10;;;;;;;5.80;3.83;;;;;;;19.88;100.00;101756.88;2063839;28;20645;-69
2022/06/19 00:38:11;;;;;;;6.03;3.80;;;;;;;20.17;100.00;101807.84;2064309;28;20831;-69
2022/06/19 00:39:11;;;;;;;7.27;3.90;;;;;;;20.18;100.00;101805.81;2064406;28;20540;-69
2022/06/19 00:40:14;;;;;;;7.33;3.83;;;;;;;20.14;100.00;101808.00;2064493;28;20181;-69
2022/06/19 00:41:14;;;;;;;7.83;3.97;;;;;;;19.92;100.00;101790.47;2063555;28;20178;-69
2022/06/19 00:42:15;;;;;;;5.50;3.70;;;;;;;19.89;100.00;101808.28;2064288;28;20493;-69
2022/06/19 00:43:16;;;;;;;4.50;3.57;;;;;;;19.89;100.00;101809.06;2063404;28;20182;-69
2022/06/19 00:44:16;;;;;;;6.90;3.73;;;;;;;19.91;100.00;101808.59;2063667;28;20549;-69
2022/06/19 00:45:39;;;;;;;6.57;3.97;;;;;;;19.91;100.00;101809.38;2064183;28;20209;-69
2022/06/19 00:47:15;;;;;;;4.87;3.90;;;;;;;19.78;100.00;101805.16;2064086;28;20176;-69
2022/06/19 00:48:27;;;;;;;6.37;3.87;;;;;;;19.80;100.00;101808.28;2063749;28;20457;-69
2022/06/19 00:49:48;;;;;;;5.00;3.50;;;;;;;19.79;100.00;101817.94;2064310;28;20834;-69
2022/06/19 00:50:50;;;;;;;5.47;4.33;;;;;;;19.76;100.00;101818.91;2064392;28;20412;-69
2022/06/19 00:52:08;;;;;;;5.43;3.93;;;;;;;19.75;100.00;101825.78;2063475;28;20456;-69
2022/06/19 00:53:15;;;;;;;4.47;4.07;;;;;;;19.75;100.00;101814.53;2063948;28;20395;-69
2022/06/19 00:54:20;;;;;;;5.60;3.60;;;;;;;19.68;100.00;101801.56;2063672;28;20914;-69
2022/06/19 00:55:27;;;;;;;7.87;4.23;;;;;;;19.72;100.00;101810.63;2064427;28;20427;-69
2022/06/19 00:56:30;;;;;;;5.17;3.90;;;;;;;19.66;100.00;101808.88;2063808;28;20423;-69
2022/06/19 00:57:34;;;;;;;5.17;3.77;;;;;;;19.72;100.00;101809.84;2060827;28;20444;-69
2022/06/19 00:58:38;;;;;;;5.63;3.53;;;;;;;18.92;100.00;101691.13;2056217;28;20421;-69
2022/06/19 00:59:42;;;;;;;5.37;3.90;;;;;;;19.69;100.00;101805.91;2055472;28;20442;-69
2022/06/19 01:00:47;;;;;;;5.30;4.17;;;;;;;19.70;100.00;101809.53;2055755;28;20947;-69
2022/06/19 01:01:48;;;;;;;6.40;4.03;;;;;;;19.57;100.00;101786.38;2055475;28;20421;-69
2022/06/19 01:02:48;;;;;;;5.93;4.00;;;;;;;19.68;100.00;101812.00;2055846;28;20420;-69
2022/06/19 01:04:04;;;;;;;4.27;3.87;;;;;;;19.57;100.00;101801.22;2056075;28;20268;-69
2022/06/19 01:05:06;;;;;;;6.80;4.40;;;;;;;19.41;100.00;101773.41;2056282;28;20164;-69
2022/06/19 01:06:08;;;;;;;4.83;3.80;;;;;;;19.60;100.00;101807.94;2056174;28;20424;-69
2022/06/19 01:07:10;;;;;;;6.40;4.13;;;;;;;18.66;100.00;101667.31;2055533;28;20465;-69
2022/06/19 01:08:11;;;;;;;5.47;4.00;;;;;;;19.50;100.00;101801.50;2056172;28;20801;-69
2022/06/19 01:09:12;;;;;;;6.23;3.97;;;;;;;19.57;100.00;101808.88;2057048;28;21020;-69
2022/06/19 01:10:13;;;;;;;5.33;3.97;;;;;;;18.86;100.00;101698.59;2064185;28;20431;-69
2022/06/19 01:11:16;;;;;;;5.97;4.30;;;;;;;19.09;100.00;101742.97;2063596;28;20180;-69
2022/06/19 01:12:19;;;;;;;5.77;3.97;;;;;;;19.56;100.00;101810.91;2064649;28;20421;-69
2022/06/19 01:13:22;;;;;;;8.47;4.67;;;;;;;19.54;100.00;101813.38;2064093;28;20441;-69
2022/06/19 01:14:26;;;;;;;5.77;4.80;;;;;;;19.41;100.00;101800.72;2064379;28;20450;-69
2022/06/19 01:15:27;;;;;;;9.40;4.47;;;;;;;19.54;100.00;101812.63;2065596;28;20816;-69
2022/06/19 01:16:27;;;;;;;7.53;4.53;;;;;;;19.53;100.00;101813.84;2065340;28;20422;-69
2022/06/19 01:17:31;;;;;;;7.40;4.50;;;;;;;19.47;100.00;101801.66;2065638;28;20516;-69
2022/06/19 01:18:34;;;;;;;7.13;4.70;;;;;;;19.49;100.00;101814.00;2065577;28;20216;-69
2022/06/19 01:19:38;;;;;;;5.97;4.57;;;;;;;19.41;100.00;101811.97;2065694;28;20856;-69
2022/06/19 01:20:40;;;;;;;7.30;4.47;;;;;;;19.44;100.00;101819.47;2065765;28;20932;-69
2022/06/19 01:21:49;;;;;;;6.13;4.50;;;;;;;19.41;100.00;101818.38;2064695;28;20521;-69
2022/06/19 01:23:08;;;;;;;4.87;3.97;;;;;;;19.25;100.00;101810.19;2065216;28;20742;-69
2022/06/19 01:24:28;;;;;;;7.73;4.63;;;;;;;19.23;100.00;101817.50;2064799;28;20406;-69
2022/06/19 01:25:32;;;;;;;7.03;4.40;;;;;;;19.17;100.00;101803.28;2065616;28;20429;-69
2022/06/19 01:26:42;;;;;;;6.77;4.47;;;;;;;18.63;100.00;101735.63;2064994;28;20948;-69
2022/06/19 01:29:08;;;;;;;5.97;4.37;;;;;;;19.21;100.00;101814.38;2066019;28;20423;-69
2022/06/19 01:30:11;;;;;;;6.80;4.43;;;;;;;19.29;100.00;101826.91;2065422;28;20432;-69
2022/06/19 01:31:15;;;;;;;7.33;4.00;;;;;;;19.46;100.00;101814.94;2064970;28;21005;-69
2022/06/19 01:32:16;;;;;;;8.77;4.33;;;;;;;19.50;100.00;101815.56;2057711;28;20422;-69
2022/06/19 01:33:22;;;;;;;5.97;4.40;;;;;;;19.42;100.00;101800.25;2058179;28;20435;-69
2022/06/19 01:34:36;;;;;;;5.50;4.10;;;;;;;19.56;100.00;101813.72;2064786;28;20176;-69
2022/06/19 01:35:38;;;;;;;6.60;4.70;;;;;;;19.37;100.00;101794.44;2065549;28;20440;-69
2022/06/19 01:36:38;;;;;;;9.20;4.80;;;;;;;19.57;100.00;101808.88;2064993;28;20417;-69
2022/06/19 01:37:40;;;;;;;6.90;5.30;;;;;;;19.61;100.00;101818.72;2065457;28;20936;-69
2022/06/19 01:38:46;;;;;;;7.30;4.70;;;;;;;19.63;100.00;101818.25;2065606;28;20185;-69
2022/06/19 01:39:57;;;;;;;6.20;4.83;;;;;;;19.63;100.00;101815.44;2065374;28;20443;-69
2022/06/19 01:41:02;;;;;;;6.60;4.47;;;;;;;19.31;100.00;101757.75;2065073;28;20404;-69
2022/06/19 01:42:04;;;;;;;5.47;4.40;;;;;;;19.00;100.00;101700.81;2065402;28;20432;-69
2022/06/19 01:43:05;;;;;;;7.97;4.80;;;;;;;19.67;100.00;101813.25;2065023;28;20503;-69
2022/06/19 01:44:06;;;;;;;10.27;5.00;;;;;;;19.70;100.00;101810.28;2064542;28;20417;-69
2022/06/19 01:45:07;;;;;;;7.47;5.10;;;;;;;19.66;100.00;101806.84;2064755;28;20429;-69
2022/06/19 01:46:08;;;;;;;7.70;4.73;;;;;;;19.39;100.00;101759.00;2064695;28;20204;-69
2022/06/19 01:47:10;;;;;;;5.07;4.40;;;;;;;19.77;100.00;101814.84;2064938;28;20471;-69
2022/06/19 01:48:12;;;;;;;6.90;4.67;;;;;;;19.79;100.00;101809.50;2065275;28;20174;-69
2022/06/19 01:49:13;;;;;;;6.23;4.40;;;;;;;19.78;100.00;101813.59;2065367;28;20414;-69
2022/06/19 01:50:18;;;;;;;6.20;4.60;;;;;;;19.63;100.00;101796.53;2065419;28;21198;-69
2022/06/19 01:51:18;;;;;;;6.73;4.70;;;;;;;19.80;100.00;101814.69;2064648;28;20430;-69
2022/06/19 01:52:21;;;;;;;6.87;5.20;;;;;;;19.80;100.00;101819.53;2065366;28;20421;-69
2022/06/19 01:53:24;;;;;;;7.00;4.70;;;;;;;19.78;100.00;101816.41;2064742;28;20675;-69
2022/06/19 01:54:32;;;;;;;6.33;4.67;;;;;;;19.77;100.00;101820.47;2064663;28;20421;-69
2022/06/19 01:55:32;;;;;;;8.63;4.73;;;;;;;19.45;100.00;101774.00;2065299;28;20404;-69
2022/06/19 01:56:33;;;;;;;7.57;4.80;;;;;;;19.73;100.00;101817.00;2064869;28;20420;-69
2022/06/19 01:57:36;;;;;;;5.77;4.80;;;;;;;19.69;100.00;101810.75;2065185;28;20304;-69
2022/06/19 01:58:41;;;;;;;7.17;4.53;;;;;;;19.78;100.00;101824.84;2065379;28;20181;-69
2022/06/19 01:59:43;;;;;;;7.63;4.80;;;;;;;19.72;100.00;101827.50;2065243;28;20452;-69
2022/06/19 02:00:47;;;;;;;9.90;5.47;;;;;;;19.73;100.00;101817.81;2065293;28;20460;-69
2022/06/19 02:01:51;;;;;;;6.00;4.83;;;;;;;19.69;100.00;101831.22;2064400;28;20425;-69
2022/06/19 02:03:04;;;;;;;8.37;5.00;;;;;;;19.72;100.00;101821.88;2064916;28;20425;-69
2022/06/19 02:04:06;;;;;;;5.30;4.53;;;;;;;19.75;100.00;101835.00;2064532;28;20397;-69
2022/06/19 02:05:07;;;;;;;7.73;4.40;;;;;;;19.61;100.00;101803.88;2065405;28;20420;-69
2022/06/19 02:06:10;;;;;;;7.13;4.73;;;;;;;19.67;100.00;101824.50;2065204;28;20424;-69
2022/06/19 02:07:16;;;;;;;13.60;5.80;;;;;;;19.58;100.00;101833.72;2064739;28;20249;-69
2022/06/19 02:08:18;;;;;;;11.10;5.50;;;;;;;19.57;100.00;101828.53;2065258;28;20424;-69
2022/06/19 02:09:22;;;;;;;12.63;5.43;;;;;;;19.57;100.00;101829.34;2065080;28;20414;-69
2022/06/19 02:10:23;;;;;;;10.70;5.60;;;;;;;19.52;100.00;101827.16;2065249;28;20962;-69
2022/06/19 02:11:24;;;;;;;8.70;5.17;;;;;;;18.67;100.00;101708.19;2064657;28;20797;-69
2022/06/19 02:12:27;;;;;;;11.10;5.60;;;;;;;19.37;100.00;101828.97;2065043;28;20177;-69
2022/06/19 02:13:29;;;;;;;7.60;5.23;;;;;;;19.32;100.00;101829.59;2064887;28;20185;-69
2022/06/19 02:14:31;;;;;;;7.77;5.93;;;;;;;19.36;100.00;101824.59;2064509;28;20937;-69
2022/06/19 02:15:32;;;;;;;7.27;5.70;;;;;;;19.34;100.00;101835.50;2065126;28;20453;-69
2022/06/19 02:16:35;;;;;;;8.73;5.43;;;;;;;19.34;100.00;101827.09;2064727;28;20417;-69
2022/06/19 02:17:43;;;;;;;6.20;4.93;;;;;;;19.28;100.00;101830.94;2065253;28;20179;-69
2022/06/19 02:18:47;;;;;;;6.07;5.10;;;;;;;19.20;100.00;101827.66;2065291;28;20422;-69
2022/06/19 02:19:48;;;;;;;6.60;4.83;;;;;;;19.18;100.00;101832.94;2065071;28;20416;-69
2022/06/19 02:20:51;;;;;;;9.43;6.13;;;;;;;19.14;100.00;101837.13;2065496;28;20431;-69
2022/06/19 02:21:52;;;;;;;6.87;5.43;;;;;;;18.72;100.00;101765.78;2064173;28;20189;-69
2022/06/19 02:22:54;;;;;;;6.57;5.70;;;;;;;19.07;100.00;101820.53;2064672;28;20422;-69
2022/06/19 02:23:55;;;;;;;6.27;5.67;;;;;;;17.99;100.00;101667.13;2063701;28;20424;-69
2022/06/19 02:24:56;;;;;;;7.47;5.37;;;;;;;19.09;100.00;101834.94;2064981;28;20424;-69
2022/06/19 02:25:58;;;;;;;12.17;6.90;;;;;;;18.46;100.00;101734.28;2065047;28;20418;-69
2022/06/19 02:27:00;;;;;;;9.17;5.83;;;;;;;19.10;100.00;101831.66;2064946;28;20262;-69
2022/06/19 02:28:03;;;;;;;7.57;5.50;;;;;;;19.15;100.00;101838.69;2064948;28;20491;-69
2022/06/19 02:29:06;;;;;;;9.87;5.40;;;;;;;19.14;100.00;101842.75;2065154;28;20416;-69
2022/06/19 02:30:10;;;;;;;8.43;5.50;;;;;;;19.14;100.00;101840.72;2065002;28;20417;-69
2022/06/19 02:31:11;;;;;;;8.63;5.47;;;;;;;19.13;100.00;101844.00;2064398;28;20452;-69
2022/06/19 02:32:25;;;;;;;8.07;5.47;;;;;;;19.12;100.00;101840.41;2064942;28;20421;-69
2022/06/19 02:33:30;;;;;;;8.73;5.10;;;;;;;19.16;100.00;101841.06;2064713;28;20184;-69
2022/06/19 02:34:40;;;;;;;8.33;5.03;;;;;;;19.15;100.00;101842.31;2064433;28;20431;-69
2022/06/19 02:35:40;;;;;;;10.37;5.60;;;;;;;19.09;100.00;101837.75;2065032;28;20412;-69
2022/06/19 02:36:55;;;;;;;9.20;5.50;;;;;;;19.10;100.00;101847.72;2064498;28;20425;-69
2022/06/19 02:37:56;;;;;;;7.57;4.90;;;;;;;19.11;100.00;101844.47;2065104;28;20364;-69
2022/06/19 02:39:00;;;;;;;8.60;5.27;;;;;;;18.55;100.00;101767.25;2064460;28;20516;-69
2022/06/19 02:40:07;;;;;;;5.73;4.70;;;;;;;19.06;100.00;101847.88;2064294;28;20170;-69
2022/06/19 02:41:17;;;;;;;5.43;4.57;;;;;;;19.06;100.00;101852.69;2064330;28;20478;-69
2022/06/19 02:42:29;;;;;;;7.70;4.93;;;;;;;18.45;100.00;101754.41;2065054;28;20417;-69
2022/06/19 02:43:33;;;;;;;7.37;4.93;;;;;;;19.05;100.00;101846.31;2064803;28;20416;-69
2022/06/19 02:44:37;;;;;;;8.47;4.70;;;;;;;19.06;100.00;101850.69;2064331;28;20428;-69
2022/06/19 02:45:39;;;;;;;8.37;4.80;;;;;;;19.02;100.00;101849.25;2064794;28;20760;-69
2022/06/19 02:46:40;;;;;;;6.70;5.10;;;;;;;19.00;100.00;101857.34;2064408;28;20439;-69
2022/06/19 02:47:41;;;;;;;6.50;4.97;;;;;;;18.97;100.00;101853.44;2064829;28;20414;-69
2022/06/19 02:48:42;;;;;;;9.90;5.20;;;;;;;18.95;100.00;101847.50;2065083;28;20811;-69
2022/06/19 02:49:43;;;;;;;7.43;5.13;;;;;;;18.99;100.00;101870.59;2064843;28;20430;-69
2022/06/19 02:50:44;;;;;;;10.67;5.20;;;;;;;18.90;100.00;101862.16;2065020;28;20420;-69
2022/06/19 02:51:44;;;;;;;6.70;5.40;;;;;;;18.90;100.00;101855.75;2064028;28;20167;-69
2022/06/19 02:52:45;;;;;;;6.87;5.13;;;;;;;18.95;100.00;101864.38;2064383;28;20185;-69
2022/06/19 02:53:46;;;;;;;11.47;5.20;;;;;;;18.86;100.00;101860.72;2064054;28;20308;-69
2022/06/19 02:54:46;;;;;;;6.90;4.87;;;;;;;18.87;100.00;101870.69;2063801;28;20992;-69
2022/06/19 02:55:48;;;;;;;9.30;5.40;;;;;;;18.84;100.00;101866.78;2064894;28;20178;-69
2022/06/19 02:56:49;;;;;;;8.30;5.80;;;;;;;18.87;100.00;101863.06;2064548;28;20273;-69
2022/06/19 02:57:50;;;;;;;11.83;5.50;;;;;;;18.88;100.00;101867.44;2064658;28;20568;-69
2022/06/19 02:58:51;;;;;;;9.43;5.50;;;;;;;18.89;100.00;101869.00;2064898;28;20436;-69
2022/06/19 02:59:52;;;;;;;9.60;5.77;;;;;;;18.85;100.00;101873.19;2064803;28;20606;-69
2022/06/19 03:00:53;;;;;;;7.23;5.13;;;;;;;18.86;100.00;101872.75;2064754;28;20182;-69
2022/06/19 03:01:53;;;;;;;8.00;5.60;;;;;;;18.58;100.00;101839.34;2064293;28;20417;-69
2022/06/19 03:02:57;;;;;;;7.03;5.37;;;;;;;18.79;100.00;101880.66;2064414;28;20181;-69
2022/06/19 03:03:58;;;;;;;7.60;5.03;;;;;;;18.84;100.00;101872.41;2064086;28;20212;-69
2022/06/19 03:05:02;;;;;;;5.33;4.83;;;;;;;18.83;100.00;101875.69;2064910;28;20445;-69
2022/06/19 03:06:04;;;;;;;6.70;5.17;;;;;;;18.84;100.00;101874.44;2064727;28;20274;-69
2022/06/19 03:07:05;;;;;;;6.73;5.20;;;;;;;18.83;100.00;101876.44;2064111;28;20470;-69
2022/06/19 03:08:05;;;;;;;8.13;4.90;;;;;;;18.84;100.00;101875.19;2064740;28;20401;-69
2022/06/19 03:09:06;;;;;;;7.23;5.13;;;;;;;18.88;100.00;101878.66;2064801;28;20675;-69
2022/06/19 03:10:07;;;;;;;8.27;5.13;;;;;;;18.91;100.00;101882.59;2064708;28;20558;-69
2022/06/19 03:11:07;;;;;;;7.90;5.17;;;;;;;18.90;100.00;101881.81;2064125;28;20174;-69
2022/06/19 03:12:10;;;;;;;9.33;5.30;;;;;;;18.92;100.00;101886.94;2064748;28;20194;-69
2022/06/19 03:13:10;;;;;;;9.03;5.20;;;;;;;18.80;100.00;101865.34;2064262;28;20199;-69
2022/06/19 03:14:11;;;;;;;12.03;5.97;;;;;;;18.86;100.00;101881.16;2063904;28;20469;-69
2022/06/19 03:15:13;;;;;;;8.07;4.90;;;;;;;18.93;100.00;101886.50;2064920;28;20174;-69
2022/06/19 03:16:14;;;;;;;8.43;5.23;;;;;;;18.97;100.00;101889.97;2064608;28;20184;-69
2022/06/19 03:17:20;;;;;;;8.90;4.70;;;;;;;18.90;100.00;101881.03;2064050;28;20417;-69
2022/06/19 03:18:20;;;;;;;8.17;5.00;;;;;;;18.94;100.00;101879.63;2064740;28;20560;-69
2022/06/19 03:19:21;;;;;;;4.73;4.30;;;;;;;18.59;100.00;101835.28;2064639;28;20531;-69
2022/06/19 03:20:24;;;;;;;6.67;4.87;;;;;;;19.01;100.00;101885.00;2064597;28;20182;-69
2022/06/19 03:21:25;;;;;;;6.17;4.50;;;;;;;18.67;100.00;101834.53;2063862;28;20174;-69
2022/06/19 03:22:26;;;;;;;6.40;4.60;;;;;;;19.01;100.00;101887.81;2064599;28;20421;-69
2022/06/19 03:23:26;;;;;;;4.93;4.30;;;;;;;19.07;100.00;101885.97;2064497;28;20426;-69
2022/06/19 03:24:27;;;;;;;5.63;4.43;;;;;;;19.12;100.00;101887.38;2064043;28;20188;-69
2022/06/19 03:25:28;;;;;;;5.47;4.47;;;;;;;19.15;100.00;101883.66;2064717;28;20299;-69
2022/06/19 03:26:28;;;;;;;6.67;4.60;;;;;;;19.16;100.00;101876.78;2064197;28;20178;-69
2022/06/19 03:27:28;;;;;;;7.97;4.87;;;;;;;19.20;100.00;101883.84;2064581;28;20190;-69
2022/06/19 03:28:29;;;;;;;5.27;4.47;;;;;;;19.24;100.00;101878.13;2064638;28;20190;-69
2022/06/19 03:29:30;;;;;;;5.43;4.50;;;;;;;19.25;100.00;101882.50;2064597;28;20185;-69
2022/06/19 03:30:30;;;;;;;6.30;4.50;;;;;;;19.25;100.00;101886.06;2064725;28;20235;-69
2022/06/19 03:31:31;;;;;;;7.00;4.60;;;;;;;19.12;100.00;101870.53;2063902;28;20220;-69
2022/06/19 03:32:31;;;;;;;5.30;4.30;;;;;;;19.27;100.00;101882.78;2064121;28;20186;-69
2022/06/19 03:33:32;;;;;;;6.07;4.73;;;;;;;19.28;100.00;101879.53;2064412;28;20190;-69
2022/06/19 03:34:32;;;;;;;5.27;4.70;;;;;;;19.30;100.00;101884.69;2063993;28;20643;-69
2022/06/19 03:35:33;;;;;;;6.13;4.27;;;;;;;19.33;100.00;101880.94;2064390;28;20192;-69
2022/06/19 03:36:34;;;;;;;7.57;4.80;;;;;;;19.27;100.00;101882.78;2064050;28;20177;-69
2022/06/19 03:37:35;;;;;;;6.80;4.80;;;;;;;18.63;100.00;101791.78;2064638;28;20185;-69
2022/06/19 03:38:35;;;;;;;5.10;4.60;;;;;;;19.16;100.00;101862.75;2064776;28;20181;-69
2022/06/19 03:39:36;;;;;;;12.63;5.20;;;;;;;19.32;100.00;101879.38;2063854;28;20429;-69
2022/06/19 03:40:36;;;;;;;6.47;5.00;;;;;;;19.54;100.00;101874.47;2064007;28;20693;-69
2022/06/19 03:41:38;;;;;;;8.20;4.93;;;;;;;19.50;100.00;101868.97;2063839;28;20178;-69
2022/06/19 03:42:38;;;;;;;8.07;5.43;;;;;;;19.54;100.00;101871.69;2064041;28;20179;-69
2022/06/19 03:43:39;;;;;;;6.57;4.73;;;;;;;19.54;100.00;101869.63;2064463;28;20961;-69
2022/06/19 03:44:40;;;;;;;8.30;5.10;;;;;;;19.53;100.00;101868.06;2064215;28;20176;-69
2022/06/19 03:45:41;;;;;;;10.13;5.37;;;;;;;19.51;100.00;101873.38;2064478;28;20778;-69
2022/06/19 03:46:41;;;;;;;6.60;4.77;;;;;;;19.48;100.00;101874.31;2063958;28;20181;-69
2022/06/19 03:47:42;;;;;;;8.07;5.13;;;;;;;19.49;100.00;101883.53;2064500;28;20428;-69
2022/06/19 03:48:45;;;;;;;8.27;5.60;;;;;;;19.27;100.00;101863.13;2064561;28;20216;-69
2022/06/19 03:49:46;;;;;;;9.00;5.17;;;;;;;19.43;100.00;101888.97;2064363;28;20237;-69
2022/06/19 03:50:46;;;;;;;8.63;5.10;;;;;;;19.43;100.00;101879.72;2064643;28;20500;-69
2022/06/19 03:51:47;;;;;;;7.97;5.63;;;;;;;19.40;100.00;101883.50;2063822;28;20272;-69
2022/06/19 03:52:47;;;;;;;12.57;5.40;;;;;;;19.31;100.00;101887.06;2064107;28;20179;-69
2022/06/19 03:53:48;;;;;;;6.87;4.97;;;;;;;19.38;100.00;101892.38;2064382;28;20215;-69
2022/06/19 03:54:49;;;;;;;7.77;4.87;;;;;;;19.44;100.00;101887.72;2063892;28;20287;-69
2022/06/19 03:55:49;;;;;;;6.80;4.90;;;;;;;19.50;100.00;101888.66;2064402;28;20228;-69
2022/06/19 03:56:50;;;;;;;7.07;4.93;;;;;;;19.16;100.00;101843.88;2064115;28;20178;-69
2022/06/19 03:57:51;;;;;;;5.50;4.97;;;;;;;19.53;100.00;101878.53;2064428;28;20173;-69
2022/06/19 03:58:52;;;;;;;8.10;5.47;;;;;;;19.48;100.00;101893.97;2064537;28;20180;-69
2022/06/19 03:59:53;;;;;;;5.90;4.77;;;;;;;19.52;100.00;101889.00;2064457;28;20192;-69
2022/06/19 04:00:53;;;;;;;6.87;4.87;;;;;;;19.26;100.00;101837.06;2064252;28;20418;-69
2022/06/19 04:01:54;;;;;;;7.50;5.37;;;;;;;19.56;100.00;101883.22;2063868;28;20174;-69
2022/06/19 04:02:54;;;;;;;6.20;5.23;;;;;;;19.54;100.00;101888.53;2063278;28;20189;-69
2022/06/19 04:03:56;;;;;;;7.80;5.17;;;;;;;19.53;100.00;101889.78;2063251;28;20561;-69
2022/06/19 04:04:56;;;;;;;6.60;5.43;;;;;;;19.47;100.00;101894.44;2064448;28;20654;-69
2022/06/19 04:05:57;;;;;;;7.07;5.17;;;;;;;19.47;100.00;101888.81;2064423;28;20420;-69
2022/06/19 04:06:57;;;;;;;7.07;5.00;;;;;;;19.54;100.00;101896.97;2063672;28;20239;-69
2022/06/19 04:07:58;;;;;;;7.87;5.57;;;;;;;19.64;100.00;101885.28;2063993;28;20175;-69
2022/06/19 04:08:59;;;;;;;8.53;5.10;;;;;;;19.70;100.00;101893.91;2064254;28;20685;-69
2022/06/19 04:10:02;;;;;;;5.80;5.20;;;;;;;19.13;100.00;101808.25;2064079;28;20175;-69
2022/06/19 04:11:04;;;;;;;7.47;5.23;;;;;;;19.21;100.00;101815.16;2063502;28;21016;-69
2022/06/19 04:12:05;;;;;;;9.33;5.20;;;;;;;18.67;100.00;101718.66;2064065;28;20933;-69
2022/06/19 04:13:06;;;;;;;5.80;4.93;;;;;;;19.83;100.00;101892.53;2063601;28;20950;-69
2022/06/19 04:14:07;;;;;;;7.33;5.67;;;;;;;19.85;100.00;101903.31;2063271;28;20472;-69
2022/06/19 04:15:09;;;;;;;7.17;5.37;;;;;;;19.83;100.00;101889.72;2064238;28;20555;-69
2022/06/19 04:16:20;;;;;;;6.70;5.27;;;;;;;19.85;100.00;101904.09;2063868;28;20649;-69
2022/06/19 04:17:21;;;;;;;8.40;5.30;;;;;;;19.84;100.00;101894.09;2063654;28;20410;-68
2022/06/19 04:18:21;;;;;;;6.97;5.20;;;;;;;19.62;100.00;101903.88;2063916;28;20417;-68
2022/06/19 04:19:22;;;;;;;9.87;5.73;;;;;;;19.53;100.00;101903.81;2063371;28;20179;-68
2022/06/19 04:20:22;;;;;;;6.20;5.30;;;;;;;19.40;100.00;101906.75;2063523;28;20659;-68
2022/06/19 04:21:26;;;;;;;6.57;5.40;;;;;;;19.23;100.00;101901.81;2063298;28;20238;-69
2022/06/19 04:22:27;;;;;;;6.17;5.40;;;;;;;19.31;100.00;101892.66;2063798;28;20182;-69
2022/06/19 04:23:28;;;;;;;6.37;5.47;;;;;;;19.49;100.00;101912.41;2063805;28;20462;-69
2022/06/19 04:24:28;;;;;;;6.30;5.50;;;;;;;19.33;100.00;101890.16;2062723;28;20206;-69
2022/06/19 04:25:29;;;;;;;6.67;5.53;;;;;;;19.27;100.00;101894.84;2063377;28;20433;-69
2022/06/19 04:26:31;;;;;;;8.43;5.77;;;;;;;19.48;100.00;101904.44;2063605;28;20196;-69
2022/06/19 04:27:32;;;;;;;7.40;5.10;;;;;;;19.44;100.00;101915.81;2064112;28;20178;-69
2022/06/19 04:28:33;;;;;;;6.43;5.40;;;;;;;19.50;100.00;101908.34;2064096;28;20440;-69
2022/06/19 04:29:33;;;;;;;5.87;5.27;;;;;;;19.58;100.00;101906.03;2063981;28;20411;-69
2022/06/19 04:30:34;;;;;;;8.17;5.50;;;;;;;19.23;100.00;101854.03;2064061;28;20662;-69
2022/06/19 04:31:34;;;;;;;5.83;5.27;;;;;;;19.50;100.00;101905.53;2063266;28;20224;-69
2022/06/19 04:32:35;;;;;;;5.93;5.03;;;;;;;19.59;100.00;101904.81;2063449;28;20311;-69
2022/06/19 04:33:39;;;;;;;5.93;5.33;;;;;;;18.84;100.00;101779.72;2063807;28;20194;-69
2022/06/19 04:34:39;;;;;;;6.43;5.70;;;;;;;18.75;100.00;101771.25;2063495;28;20175;-69
2022/06/19 04:35:40;;;;;;;10.33;5.70;;;;;;;19.53;100.00;101881.34;2063951;28;20418;-69
2022/06/19 04:36:41;;;;;;;7.47;5.70;;;;;;;19.78;100.00;101914.84;2063609;28;20556;-69
2022/06/19 04:37:43;;;;;;;6.07;5.00;;;;;;;19.15;100.00;101802.16;2063894;28;20476;-69
2022/06/19 04:38:46;;;;;;;7.93;5.43;;;;;;;19.81;100.00;101903.44;2063990;28;20241;-69
2022/06/19 04:39:46;;;;;;;7.80;5.47;;;;;;;19.86;100.00;101910.50;2063846;28;20540;-69
2022/06/19 04:40:47;;;;;;;8.43;5.30;;;;;;;19.94;100.00;101914.56;2064115;28;20641;-69
2022/06/19 04:41:47;;;;;;;8.97;5.27;;;;;;;19.69;100.00;101867.00;2063202;28;20206;-69
2022/06/19 04:42:48;;;;;;;5.53;4.83;;;;;;;20.09;100.00;101918.38;2063539;28;20201;-69
2022/06/19 04:43:52;;;;;;;6.73;5.50;;;;;;;20.05;100.00;101912.88;2063863;28;20725;-69
2022/06/19 04:44:53;;;;;;;7.53;5.50;;;;;;;20.13;100.00;101907.75;2063794;28;20186;-69
2022/06/19 04:46:01;;;;;;;6.53;5.03;;;;;;;20.21;100.00;101906.97;2063852;28;20425;-69
2022/06/19 04:47:04;;;;;;;5.70;5.20;;;;;;;20.31;100.00;101905.75;2063737;28;20166;-69
2022/06/19 04:48:05;;;;;;;6.93;4.70;;;;;;;20.38;100.00;101916.72;2064561;28;20421;-69
2022/06/19 04:49:06;;;;;;;6.60;5.13;;;;;;;20.46;100.00;101915.13;2064617;28;20425;-69